createdAt,value
2017-01-17T00:00:22.553Z,1020.68
2017-01-17T00:01:32.710Z,1020.72
2017-01-17T00:02:42.427Z,1020.75
2017-01-17T00:03:51.756Z,1020.71
2017-01-17T00:05:01.037Z,1020.72
2017-01-17T00:06:11.191Z,1020.71
2017-01-17T00:07:21.352Z,1020.73
2017-01-17T00:08:30.637Z,1020.74
2017-01-17T00:09:41.283Z,1020.72
2017-01-17T00:10:50.996Z,1020.72
2017-01-17T00:12:00.717Z,1020.7
2017-01-17T00:13:10.426Z,1020.71
2017-01-17T00:14:20.146Z,1020.7
2017-01-17T00:15:29.911Z,1020.73
2017-01-17T00:16:39.629Z,1020.73
2017-01-17T00:17:48.914Z,1020.7
2017-01-17T00:18:58.635Z,1020.7
2017-01-17T00:20:09.220Z,1020.72
2017-01-17T00:21:19.429Z,1020.7
2017-01-17T00:22:28.710Z,1020.71
2017-01-17T00:23:38.427Z,1020.75
2017-01-17T00:24:47.704Z,1020.72
2017-01-17T00:25:58.298Z,1020.74
2017-01-17T00:27:08.598Z,1020.72
2017-01-17T00:28:17.876Z,1020.73
2017-01-17T00:29:28.029Z,1020.69
2017-01-17T00:30:37.743Z,1020.74
2017-01-17T00:31:47.467Z,1020.76
2017-01-17T00:32:58.544Z,1020.76
2017-01-17T00:34:08.261Z,1020.72
2017-01-17T00:35:18.419Z,1020.74
2017-01-17T00:36:28.601Z,1020.77
2017-01-17T00:37:37.885Z,1020.78
2017-01-17T00:38:47.658Z,1020.8
2017-01-17T00:39:57.807Z,1020.78
2017-01-17T00:41:07.984Z,1020.78
2017-01-17T00:42:18.137Z,1020.77
2017-01-17T00:43:27.851Z,1020.85
2017-01-17T00:44:38.055Z,1020.91
2017-01-17T00:45:47.777Z,1020.89
2017-01-17T00:46:57.502Z,1020.91
2017-01-17T00:48:07.658Z,1020.92
2017-01-17T00:49:18.255Z,1020.94
2017-01-17T00:50:28.120Z,1020.95
2017-01-17T00:51:37.401Z,1020.92
2017-01-17T00:52:46.679Z,1020.88
2017-01-17T00:53:56.391Z,1020.95
2017-01-17T00:55:06.105Z,1020.91
2017-01-17T00:56:15.874Z,1020.93
2017-01-17T00:57:26.463Z,1020.97
2017-01-17T00:58:36.624Z,1020.94
2017-01-17T00:59:46.340Z,1020.98
2017-01-17T01:00:56.494Z,1020.96
2017-01-17T01:02:06.851Z,1020.99
2017-01-17T01:03:16.565Z,1021.03
2017-01-17T01:04:26.289Z,1021.02
2017-01-17T01:05:36.006Z,1021.03
2017-01-17T01:06:46.163Z,1021.07
2017-01-17T01:07:55.933Z,1021.04
2017-01-17T01:09:05.238Z,1021.06
2017-01-17T01:10:14.959Z,1021.01
2017-01-17T01:11:24.680Z,1020.99
2017-01-17T01:12:34.397Z,1020.99
2017-01-17T01:13:44.166Z,1020.99
2017-01-17T01:14:53.451Z,1021.03
2017-01-17T01:16:02.736Z,1021.06
2017-01-17T01:17:12.449Z,1021
2017-01-17T01:18:22.162Z,1021.05
2017-01-17T01:19:32.376Z,1021.07
2017-01-17T01:20:42.557Z,1021.02
2017-01-17T01:21:53.150Z,1021.08
2017-01-17T01:23:02.867Z,1021.07
2017-01-17T01:24:13.024Z,1021.1
2017-01-17T01:25:23.377Z,1021.11
2017-01-17T01:26:33.094Z,1021.12
2017-01-17T01:27:42.811Z,1021.1
2017-01-17T01:28:52.112Z,1021.14
2017-01-17T01:30:01.833Z,1021.15
2017-01-17T01:31:11.599Z,1021.18
2017-01-17T01:32:21.316Z,1021.13
2017-01-17T01:33:31.909Z,1021.17
2017-01-17T01:34:42.070Z,1021.18
2017-01-17T01:35:51.783Z,1021.17
2017-01-17T01:37:02.860Z,1021.17
2017-01-17T01:38:13.453Z,1021.2
2017-01-17T01:39:23.606Z,1021.23
2017-01-17T01:40:33.328Z,1021.28
2017-01-17T01:41:43.069Z,1021.26
2017-01-17T01:42:53.294Z,1021.27
2017-01-17T01:44:03.887Z,1021.27
2017-01-17T01:45:14.048Z,1021.31
2017-01-17T01:46:24.205Z,1021.3
2017-01-17T01:47:33.483Z,1021.32
2017-01-17T01:48:43.787Z,1021.31
2017-01-17T01:49:54.381Z,1021.38
2017-01-17T01:51:04.537Z,1021.41
2017-01-17T01:52:14.255Z,1021.41
2017-01-17T01:53:24.412Z,1021.41
2017-01-17T01:54:34.621Z,1021.44
2017-01-17T01:55:44.782Z,1021.42
2017-01-17T01:56:54.939Z,1021.46
2017-01-17T01:58:04.665Z,1021.46
2017-01-17T01:59:14.381Z,1021.47
2017-01-17T02:00:24.147Z,1021.44
2017-01-17T02:01:34.328Z,1021.48
2017-01-17T02:02:44.485Z,1021.47
2017-01-17T02:03:54.198Z,1021.52
2017-01-17T02:05:03.936Z,1021.51
2017-01-17T02:06:14.144Z,1021.49
2017-01-17T02:07:23.866Z,1021.55
2017-01-17T02:08:33.151Z,1021.51
2017-01-17T02:09:42.868Z,1021.54
2017-01-17T02:10:53.035Z,1021.53
2017-01-17T02:12:02.374Z,1021.51
2017-01-17T02:13:12.095Z,1021.51
2017-01-17T02:14:21.817Z,1021.54
2017-01-17T02:15:32.420Z,1021.52
2017-01-17T02:16:42.147Z,1021.55
2017-01-17T02:17:51.908Z,1021.54
2017-01-17T02:19:02.061Z,1021.5
2017-01-17T02:20:12.223Z,1021.53
2017-01-17T02:21:21.528Z,1021.52
2017-01-17T02:22:31.688Z,1021.51
2017-01-17T02:23:41.450Z,1021.53
2017-01-17T02:24:51.171Z,1021.53
2017-01-17T02:26:00.893Z,1021.54
2017-01-17T02:27:11.041Z,1021.57
2017-01-17T02:28:21.198Z,1021.55
2017-01-17T02:29:30.535Z,1021.55
2017-01-17T02:30:39.813Z,1021.54
2017-01-17T02:31:49.094Z,1021.56
2017-01-17T02:32:58.815Z,1021.57
2017-01-17T02:34:09.416Z,1021.59
2017-01-17T02:35:19.185Z,1021.59
2017-01-17T02:36:29.339Z,1021.62
2017-01-17T02:37:39.928Z,1021.68
2017-01-17T02:38:50.529Z,1021.68
2017-01-17T02:40:01.126Z,1021.68
2017-01-17T02:41:11.779Z,1021.7
2017-01-17T02:42:22.380Z,1021.72
2017-01-17T02:43:31.662Z,1021.71
2017-01-17T02:44:41.830Z,1021.7
2017-01-17T02:45:51.116Z,1021.74
2017-01-17T02:47:00.895Z,1021.73
2017-01-17T02:48:11.062Z,1021.73
2017-01-17T02:49:20.788Z,1021.73
2017-01-17T02:50:30.940Z,1021.77
2017-01-17T02:51:40.662Z,1021.75
2017-01-17T02:52:51.391Z,1021.78
2017-01-17T02:54:01.580Z,1021.8
2017-01-17T02:55:10.861Z,1021.82
2017-01-17T02:56:20.151Z,1021.82
2017-01-17T02:57:30.312Z,1021.82
2017-01-17T02:58:39.649Z,1021.83
2017-01-17T02:59:49.810Z,1021.83
2017-01-17T03:00:59.099Z,1021.82
2017-01-17T03:02:09.265Z,1021.82
2017-01-17T03:03:19.014Z,1021.79
2017-01-17T03:04:29.223Z,1021.78
2017-01-17T03:05:39.388Z,1021.82
2017-01-17T03:06:48.673Z,1021.84
2017-01-17T03:07:58.398Z,1021.81
2017-01-17T03:09:08.115Z,1021.8
2017-01-17T03:10:17.917Z,1021.82
2017-01-17T03:11:28.122Z,1021.83
2017-01-17T03:12:38.283Z,1021.85
2017-01-17T03:13:48.016Z,1021.83
2017-01-17T03:14:57.743Z,1021.82
2017-01-17T03:16:07.511Z,1021.85
2017-01-17T03:17:16.800Z,1021.87
2017-01-17T03:18:26.521Z,1021.84
2017-01-17T03:19:36.254Z,1021.85
2017-01-17T03:20:46.423Z,1021.87
2017-01-17T03:21:56.669Z,1021.87
2017-01-17T03:23:06.850Z,1021.88
2017-01-17T03:24:16.135Z,1021.89
2017-01-17T03:25:25.888Z,1021.9
2017-01-17T03:26:35.182Z,1021.97
2017-01-17T03:27:45.395Z,1021.97
2017-01-17T03:28:56.000Z,1021.94
2017-01-17T03:30:06.173Z,1021.87
2017-01-17T03:31:16.767Z,1021.88
2017-01-17T03:32:26.939Z,1021.9
2017-01-17T03:33:37.152Z,1021.93
2017-01-17T03:34:47.750Z,1021.91
2017-01-17T03:35:57.047Z,1021.95
2017-01-17T03:37:06.340Z,1021.92
2017-01-17T03:38:16.070Z,1021.95
2017-01-17T03:39:25.399Z,1021.91
2017-01-17T03:40:35.564Z,1021.93
2017-01-17T03:41:45.290Z,1021.94
2017-01-17T03:42:55.458Z,1021.96
2017-01-17T03:44:05.184Z,1021.91
2017-01-17T03:45:14.957Z,1021.91
2017-01-17T03:46:25.122Z,1021.91
2017-01-17T03:47:34.847Z,1021.9
2017-01-17T03:48:44.576Z,1021.87
2017-01-17T03:49:54.302Z,1021.91
2017-01-17T03:51:04.067Z,1021.94
2017-01-17T03:52:13.360Z,1021.93
2017-01-17T03:53:23.533Z,1021.93
2017-01-17T03:54:33.263Z,1021.96
2017-01-17T03:55:42.553Z,1021.99
2017-01-17T03:56:52.317Z,1022.01
2017-01-17T03:58:02.038Z,1022.06
2017-01-17T03:59:11.331Z,1022.04
2017-01-17T04:00:21.054Z,1022.04
2017-01-17T04:01:30.774Z,1022.09
2017-01-17T04:02:41.023Z,1022.09
2017-01-17T04:03:51.201Z,1022.03
2017-01-17T04:05:00.921Z,1022.01
2017-01-17T04:06:10.642Z,1022.07
2017-01-17T04:07:20.808Z,1022
2017-01-17T04:08:30.145Z,1022.01
2017-01-17T04:09:39.902Z,1022.06
2017-01-17T04:10:50.495Z,1022.1
2017-01-17T04:11:59.776Z,1022.1
2017-01-17T04:13:09.510Z,1022.05
2017-01-17T04:14:19.728Z,1022.04
2017-01-17T04:15:29.456Z,1022.07
2017-01-17T04:16:39.629Z,1022.09
2017-01-17T04:17:49.814Z,1022.06
2017-01-17T04:18:59.552Z,1022.12
2017-01-17T04:20:09.761Z,1022.13
2017-01-17T04:21:19.486Z,1022.11
2017-01-17T04:22:29.204Z,1022.09
2017-01-17T04:23:38.489Z,1022.05
2017-01-17T04:24:48.650Z,1022.05
2017-01-17T04:25:57.979Z,1022.1
2017-01-17T04:27:07.700Z,1022.14
2017-01-17T04:28:17.426Z,1022.16
2017-01-17T04:29:27.583Z,1022.14
2017-01-17T04:30:37.316Z,1022.16
2017-01-17T04:31:47.089Z,1022.09
2017-01-17T04:32:56.830Z,1022.12
2017-01-17T04:34:06.559Z,1022.09
2017-01-17T04:35:16.717Z,1022.13
2017-01-17T04:36:26.434Z,1022.13
2017-01-17T04:37:37.079Z,1022.1
2017-01-17T04:38:46.800Z,1022.1
2017-01-17T04:39:56.522Z,1022.12
2017-01-17T04:41:06.679Z,1022.13
2017-01-17T04:42:16.400Z,1022.15
2017-01-17T04:43:25.741Z,1022.12
2017-01-17T04:44:36.331Z,1022.14
2017-01-17T04:45:46.060Z,1022.15
2017-01-17T04:46:55.789Z,1022.15
2017-01-17T04:48:05.510Z,1022.13
2017-01-17T04:49:15.279Z,1022.14
2017-01-17T04:50:24.564Z,1022.21
2017-01-17T04:51:34.293Z,1022.17
2017-01-17T04:52:44.015Z,1022.19
2017-01-17T04:53:53.300Z,1022.18
2017-01-17T04:55:03.517Z,1022.19
2017-01-17T04:56:13.239Z,1022.19
2017-01-17T04:57:23.852Z,1022.26
2017-01-17T04:58:33.605Z,1022.25
2017-01-17T04:59:43.779Z,1022.27
2017-01-17T05:00:53.551Z,1022.26
2017-01-17T05:02:02.840Z,1022.27
2017-01-17T05:03:13.438Z,1022.29
2017-01-17T05:04:22.719Z,1022.28
2017-01-17T05:05:32.000Z,1022.28
2017-01-17T05:06:41.817Z,1022.31
2017-01-17T05:07:51.550Z,1022.32
2017-01-17T05:09:01.715Z,1022.34
2017-01-17T05:10:11.433Z,1022.33
2017-01-17T05:11:20.718Z,1022.37
2017-01-17T05:12:30.487Z,1022.36
2017-01-17T05:13:40.205Z,1022.39
2017-01-17T05:14:49.494Z,1022.44
2017-01-17T05:15:59.662Z,1022.38
2017-01-17T05:17:10.708Z,1022.39
2017-01-17T05:18:20.481Z,1022.39
2017-01-17T05:19:30.198Z,1022.39
2017-01-17T05:20:39.479Z,1022.39
2017-01-17T05:21:49.213Z,1022.34
2017-01-17T05:22:59.814Z,1022.35
2017-01-17T05:24:09.147Z,1022.35
2017-01-17T05:25:19.316Z,1022.38
2017-01-17T05:26:29.077Z,1022.4
2017-01-17T05:27:38.795Z,1022.37
2017-01-17T05:28:48.947Z,1022.39
2017-01-17T05:29:58.730Z,1022.4
2017-01-17T05:31:08.454Z,1022.44
2017-01-17T05:32:17.739Z,1022.39
2017-01-17T05:33:28.348Z,1022.47
2017-01-17T05:34:38.505Z,1022.45
2017-01-17T05:35:47.839Z,1022.48
2017-01-17T05:36:58.008Z,1022.5
2017-01-17T05:38:07.733Z,1022.52
2017-01-17T05:39:17.898Z,1022.5
2017-01-17T05:40:28.491Z,1022.49
2017-01-17T05:41:38.252Z,1022.49
2017-01-17T05:42:48.466Z,1022.55
2017-01-17T05:43:58.623Z,1022.57
2017-01-17T05:45:08.344Z,1022.59
2017-01-17T05:46:18.504Z,1022.6
2017-01-17T05:47:28.710Z,1022.65
2017-01-17T05:48:37.995Z,1022.64
2017-01-17T05:49:47.716Z,1022.65
2017-01-17T05:50:57.445Z,1022.67
2017-01-17T05:52:07.603Z,1022.69
2017-01-17T05:53:16.940Z,1022.7
2017-01-17T05:54:27.537Z,1022.69
2017-01-17T05:55:38.135Z,1022.66
2017-01-17T05:56:48.303Z,1022.68
2017-01-17T05:57:58.025Z,1022.68
2017-01-17T05:59:07.381Z,1022.68
2017-01-17T06:00:17.103Z,1022.7
2017-01-17T06:01:26.841Z,1022.69
2017-01-17T06:02:37.005Z,1022.69
2017-01-17T06:03:47.163Z,1022.71
2017-01-17T06:04:56.939Z,1022.73
2017-01-17T06:06:07.541Z,1022.75
2017-01-17T06:07:17.298Z,1022.75
2017-01-17T06:08:27.011Z,1022.78
2017-01-17T06:09:37.608Z,1022.8
2017-01-17T06:10:46.942Z,1022.83
2017-01-17T06:11:57.530Z,1022.87
2017-01-17T06:13:06.816Z,1022.86
2017-01-17T06:14:16.529Z,1022.84
2017-01-17T06:15:26.266Z,1022.87
2017-01-17T06:16:36.043Z,1022.89
2017-01-17T06:17:45.792Z,1022.89
2017-01-17T06:18:55.550Z,1022.92
2017-01-17T06:20:06.159Z,1022.94
2017-01-17T06:21:15.440Z,1022.92
2017-01-17T06:22:25.217Z,1022.95
2017-01-17T06:23:34.503Z,1022.99
2017-01-17T06:24:44.212Z,1022.98
2017-01-17T06:25:53.960Z,1023.04
2017-01-17T06:27:04.570Z,1023.05
2017-01-17T06:28:14.787Z,1023.08
2017-01-17T06:29:24.949Z,1023.06
2017-01-17T06:30:35.106Z,1023.09
2017-01-17T06:31:44.830Z,1023.12
2017-01-17T06:32:54.992Z,1023.14
2017-01-17T06:34:04.329Z,1023.1
2017-01-17T06:35:14.494Z,1023.14
2017-01-17T06:36:25.095Z,1023.12
2017-01-17T06:37:34.824Z,1023.15
2017-01-17T06:38:44.982Z,1023.09
2017-01-17T06:39:54.755Z,1023.09
2017-01-17T06:41:05.360Z,1023.11
2017-01-17T06:42:15.526Z,1023.11
2017-01-17T06:43:25.254Z,1023.13
2017-01-17T06:44:35.860Z,1023.13
2017-01-17T06:45:45.637Z,1023.1
2017-01-17T06:46:55.354Z,1023.07
2017-01-17T06:48:05.523Z,1023.08
2017-01-17T06:49:15.253Z,1023.09
2017-01-17T06:50:25.850Z,1023.1
2017-01-17T06:51:35.203Z,1023.06
2017-01-17T06:52:44.488Z,1023.07
2017-01-17T06:53:53.777Z,1023.1
2017-01-17T06:55:03.502Z,1023.09
2017-01-17T06:56:13.228Z,1023.08
2017-01-17T06:57:22.597Z,1023.05
2017-01-17T06:58:32.754Z,1023.09
2017-01-17T06:59:42.927Z,1023.06
2017-01-17T07:00:53.088Z,1023.12
2017-01-17T07:02:03.253Z,1023.12
2017-01-17T07:03:13.023Z,1023.09
2017-01-17T07:04:22.336Z,1023.18
2017-01-17T07:05:32.057Z,1023.17
2017-01-17T07:06:41.786Z,1023.21
2017-01-17T07:07:51.511Z,1023.23
2017-01-17T07:09:01.724Z,1023.21
2017-01-17T07:10:11.885Z,1023.22
2017-01-17T07:11:21.171Z,1023.25
2017-01-17T07:12:31.772Z,1023.28
2017-01-17T07:13:41.498Z,1023.28
2017-01-17T07:14:52.150Z,1023.28
2017-01-17T07:16:02.748Z,1023.28
2017-01-17T07:17:12.469Z,1023.35
2017-01-17T07:18:23.517Z,1023.42
2017-01-17T07:19:33.239Z,1023.41
2017-01-17T07:20:43.012Z,1023.42
2017-01-17T07:21:52.737Z,1023.45
2017-01-17T07:23:02.467Z,1023.47
2017-01-17T07:24:12.628Z,1023.5
2017-01-17T07:25:22.345Z,1023.54
2017-01-17T07:26:31.678Z,1023.61
2017-01-17T07:27:41.405Z,1023.64
2017-01-17T07:28:51.572Z,1023.69
2017-01-17T07:30:01.318Z,1023.69
2017-01-17T07:31:11.051Z,1023.76
2017-01-17T07:32:20.820Z,1023.75
2017-01-17T07:33:30.117Z,1023.74
2017-01-17T07:34:39.838Z,1023.75
2017-01-17T07:35:49.563Z,1023.77
2017-01-17T07:36:59.736Z,1023.79
2017-01-17T07:38:09.962Z,1023.78
2017-01-17T07:39:19.687Z,1023.82
2017-01-17T07:40:29.404Z,1023.8
2017-01-17T07:41:39.121Z,1023.77
2017-01-17T07:42:49.287Z,1023.88
2017-01-17T07:43:59.068Z,1023.88
2017-01-17T07:45:09.225Z,1023.88
2017-01-17T07:46:19.386Z,1023.88
2017-01-17T07:47:29.544Z,1023.91
2017-01-17T07:48:40.577Z,1023.92
2017-01-17T07:49:49.917Z,1023.95
2017-01-17T07:50:59.198Z,1023.94
2017-01-17T07:52:09.812Z,1023.98
2017-01-17T07:53:19.981Z,1024.01
2017-01-17T07:54:29.710Z,1024.03
2017-01-17T07:55:39.047Z,1024.06
2017-01-17T07:56:48.756Z,1024.04
2017-01-17T07:57:58.069Z,1024.07
2017-01-17T07:59:07.350Z,1024.05
2017-01-17T08:00:16.635Z,1024.05
2017-01-17T08:01:26.848Z,1024.08
2017-01-17T08:02:36.569Z,1024.09
2017-01-17T08:03:46.731Z,1024.04
2017-01-17T08:04:56.892Z,1024.04
2017-01-17T08:06:07.053Z,1024.04
2017-01-17T08:07:17.254Z,1024.12
2017-01-17T08:08:26.983Z,1024.12
2017-01-17T08:09:36.696Z,1024.16
2017-01-17T08:10:45.981Z,1024.16
2017-01-17T08:11:56.634Z,1024.14
2017-01-17T08:13:07.415Z,1024.16
2017-01-17T08:14:18.781Z,1024.14
2017-01-17T08:15:29.650Z,1024.13
2017-01-17T08:16:41.639Z,1024.13
2017-01-17T08:17:52.360Z,1024.2
2017-01-17T08:19:02.657Z,1024.13
2017-01-17T08:20:12.906Z,1024.13
2017-01-17T08:21:22.920Z,1024.14
2017-01-17T08:22:33.093Z,1024.12
2017-01-17T08:23:42.822Z,1024.12
2017-01-17T08:24:52.599Z,1024.09
2017-01-17T08:26:02.348Z,1024.06
2017-01-17T08:27:11.634Z,1024.07
2017-01-17T08:28:21.791Z,1024.1
2017-01-17T08:29:31.512Z,1024.18
2017-01-17T08:30:42.153Z,1024.15
2017-01-17T08:31:51.439Z,1024.12
2017-01-17T08:33:01.595Z,1024.21
2017-01-17T08:34:11.317Z,1024.22
2017-01-17T08:35:20.598Z,1024.23
2017-01-17T08:36:29.927Z,1024.22
2017-01-17T08:37:39.236Z,1024.24
2017-01-17T08:38:48.525Z,1024.19
2017-01-17T08:39:59.122Z,1024.22
2017-01-17T08:41:08.844Z,1024.21
2017-01-17T08:42:19.497Z,1024.23
2017-01-17T08:43:29.658Z,1024.21
2017-01-17T08:44:38.946Z,1024.24
2017-01-17T08:45:49.107Z,1024.21
2017-01-17T08:46:58.390Z,1024.23
2017-01-17T08:48:07.722Z,1024.28
2017-01-17T08:49:17.008Z,1024.25
2017-01-17T08:50:27.180Z,1024.22
2017-01-17T08:51:37.347Z,1024.25
2017-01-17T08:52:47.074Z,1024.3
2017-01-17T08:53:56.848Z,1024.34
2017-01-17T08:55:07.010Z,1024.32
2017-01-17T08:56:17.618Z,1024.33
2017-01-17T08:57:27.334Z,1024.38
2017-01-17T08:58:36.632Z,1024.41
2017-01-17T08:59:46.421Z,1024.43
2017-01-17T09:00:56.586Z,1024.43
2017-01-17T09:02:05.875Z,1024.41
2017-01-17T09:03:16.508Z,1024.44
2017-01-17T09:04:26.237Z,1024.44
2017-01-17T09:05:36.011Z,1024.43
2017-01-17T09:06:46.168Z,1024.44
2017-01-17T09:07:55.885Z,1024.49
2017-01-17T09:09:06.483Z,1024.51
2017-01-17T09:10:16.652Z,1024.52
2017-01-17T09:11:27.460Z,1024.52
2017-01-17T09:12:37.186Z,1024.5
2017-01-17T09:13:46.907Z,1024.56
2017-01-17T09:14:57.068Z,1024.54
2017-01-17T09:16:06.813Z,1024.52
2017-01-17T09:17:16.587Z,1024.53
2017-01-17T09:18:25.871Z,1024.55
2017-01-17T09:19:36.033Z,1024.48
2017-01-17T09:20:45.314Z,1024.54
2017-01-17T09:21:55.479Z,1024.55
2017-01-17T09:23:06.124Z,1024.56
2017-01-17T09:24:15.409Z,1024.55
2017-01-17T09:25:25.582Z,1024.48
2017-01-17T09:26:34.872Z,1024.59
2017-01-17T09:27:44.593Z,1024.53
2017-01-17T09:28:54.366Z,1024.56
2017-01-17T09:30:04.091Z,1024.59
2017-01-17T09:31:14.252Z,1024.59
2017-01-17T09:32:23.534Z,1024.64
2017-01-17T09:33:33.258Z,1024.66
2017-01-17T09:34:43.032Z,1024.65
2017-01-17T09:35:52.753Z,1024.63
2017-01-17T09:37:02.478Z,1024.66
2017-01-17T09:38:13.071Z,1024.69
2017-01-17T09:39:23.228Z,1024.66
2017-01-17T09:40:33.009Z,1024.7
2017-01-17T09:41:43.195Z,1024.73
2017-01-17T09:42:53.360Z,1024.73
2017-01-17T09:44:03.521Z,1024.69
2017-01-17T09:45:12.805Z,1024.77
2017-01-17T09:46:23.019Z,1024.72
2017-01-17T09:47:32.740Z,1024.75
2017-01-17T09:48:42.029Z,1024.7
2017-01-17T09:49:51.751Z,1024.72
2017-01-17T09:51:01.548Z,1024.77
2017-01-17T09:52:11.317Z,1024.77
2017-01-17T09:53:21.034Z,1024.77
2017-01-17T09:54:30.755Z,1024.78
2017-01-17T09:55:40.481Z,1024.78
2017-01-17T09:56:50.202Z,1024.78
2017-01-17T09:58:00.455Z,1024.8
2017-01-17T09:59:10.620Z,1024.83
2017-01-17T10:00:21.217Z,1024.82
2017-01-17T10:01:30.939Z,1024.84
2017-01-17T10:02:40.670Z,1024.85
2017-01-17T10:03:50.929Z,1024.87
2017-01-17T10:05:00.230Z,1024.87
2017-01-17T10:06:10.403Z,1024.88
2017-01-17T10:07:19.692Z,1024.86
2017-01-17T10:08:29.422Z,1024.85
2017-01-17T10:09:40.515Z,1024.85
2017-01-17T10:10:50.240Z,1024.85
2017-01-17T10:12:00.409Z,1024.86
2017-01-17T10:13:10.138Z,1024.82
2017-01-17T10:14:19.867Z,1024.87
2017-01-17T10:15:30.081Z,1024.84
2017-01-17T10:16:39.802Z,1024.84
2017-01-17T10:17:49.527Z,1024.88
2017-01-17T10:18:59.248Z,1024.88
2017-01-17T10:20:08.526Z,1024.87
2017-01-17T10:21:17.863Z,1024.92
2017-01-17T10:22:27.151Z,1024.88
2017-01-17T10:23:36.873Z,1024.88
2017-01-17T10:24:46.598Z,1024.9
2017-01-17T10:25:56.319Z,1024.95
2017-01-17T10:27:06.092Z,1025.01
2017-01-17T10:28:16.246Z,1024.97
2017-01-17T10:29:26.411Z,1024.98
2017-01-17T10:30:36.124Z,1025.02
2017-01-17T10:31:45.405Z,1025.01
2017-01-17T10:32:54.734Z,1025.01
2017-01-17T10:34:04.455Z,1025
2017-01-17T10:35:14.172Z,1025.02
2017-01-17T10:36:23.454Z,1025.06
2017-01-17T10:37:33.175Z,1025.03
2017-01-17T10:38:42.951Z,1025
2017-01-17T10:39:53.113Z,1025.08
2017-01-17T10:41:02.839Z,1025.06
2017-01-17T10:42:12.556Z,1025.12
2017-01-17T10:43:22.281Z,1025.13
2017-01-17T10:44:32.494Z,1025.14
2017-01-17T10:45:42.655Z,1025.2
2017-01-17T10:46:52.380Z,1025.21
2017-01-17T10:48:02.106Z,1025.2
2017-01-17T10:49:12.263Z,1025.24
2017-01-17T10:50:22.036Z,1025.3
2017-01-17T10:51:32.197Z,1025.24
2017-01-17T10:52:41.922Z,1025.24
2017-01-17T10:53:51.640Z,1025.27
2017-01-17T10:55:01.796Z,1025.29
2017-01-17T10:56:11.570Z,1025.3
2017-01-17T10:57:21.743Z,1025.3
2017-01-17T10:58:31.932Z,1025.29
2017-01-17T10:59:41.657Z,1025.29
2017-01-17T11:00:52.262Z,1025.28
2017-01-17T11:02:02.076Z,1025.27
2017-01-17T11:03:11.809Z,1025.29
2017-01-17T11:04:21.534Z,1025.28
2017-01-17T11:05:30.815Z,1025.3
2017-01-17T11:06:40.537Z,1025.28
2017-01-17T11:07:50.306Z,1025.3
2017-01-17T11:09:00.919Z,1025.29
2017-01-17T11:10:10.649Z,1025.27
2017-01-17T11:11:20.389Z,1025.29
2017-01-17T11:12:30.111Z,1025.26
2017-01-17T11:13:39.440Z,1025.27
2017-01-17T11:14:49.606Z,1025.24
2017-01-17T11:15:59.338Z,1025.2
2017-01-17T11:17:09.059Z,1025.19
2017-01-17T11:18:18.788Z,1025.22
2017-01-17T11:19:29.150Z,1025.22
2017-01-17T11:20:38.874Z,1025.21
2017-01-17T11:21:49.040Z,1025.2
2017-01-17T11:22:58.761Z,1025.17
2017-01-17T11:24:08.486Z,1025.14
2017-01-17T11:25:18.703Z,1025.13
2017-01-17T11:26:28.432Z,1025.2
2017-01-17T11:27:38.586Z,1025.2
2017-01-17T11:28:48.311Z,1025.21
2017-01-17T11:29:58.033Z,1025.23
2017-01-17T11:31:07.367Z,1025.25
2017-01-17T11:32:17.527Z,1025.27
2017-01-17T11:33:27.680Z,1025.26
2017-01-17T11:34:37.853Z,1025.28
2017-01-17T11:35:47.578Z,1025.28
2017-01-17T11:36:56.912Z,1025.29
2017-01-17T11:38:07.073Z,1025.31
2017-01-17T11:39:17.670Z,1025.33
2017-01-17T11:40:27.395Z,1025.38
2017-01-17T11:41:36.676Z,1025.37
2017-01-17T11:42:46.885Z,1025.44
2017-01-17T11:43:56.603Z,1025.38
2017-01-17T11:45:05.884Z,1025.39
2017-01-17T11:46:15.605Z,1025.47
2017-01-17T11:47:25.767Z,1025.42
2017-01-17T11:48:35.103Z,1025.4
2017-01-17T11:49:44.825Z,1025.46
2017-01-17T11:50:54.550Z,1025.47
2017-01-17T11:52:05.155Z,1025.45
2017-01-17T11:53:14.888Z,1025.45
2017-01-17T11:54:24.662Z,1025.44
2017-01-17T11:55:34.407Z,1025.42
2017-01-17T11:56:44.563Z,1025.47
2017-01-17T11:57:54.293Z,1025.45
2017-01-17T11:59:04.006Z,1025.43
2017-01-17T12:00:13.339Z,1025.48
2017-01-17T12:01:23.504Z,1025.42
2017-01-17T12:02:33.673Z,1025.44
2017-01-17T12:03:43.398Z,1025.48
2017-01-17T12:04:53.555Z,1025.47
2017-01-17T12:06:03.333Z,1025.51
2017-01-17T12:07:12.617Z,1025.54
2017-01-17T12:08:22.783Z,1025.51
2017-01-17T12:09:32.508Z,1025.52
2017-01-17T12:10:42.669Z,1025.51
2017-01-17T12:11:52.882Z,1025.51
2017-01-17T12:13:02.612Z,1025.49
2017-01-17T12:14:12.769Z,1025.51
2017-01-17T12:15:22.046Z,1025.53
2017-01-17T12:16:31.327Z,1025.53
2017-01-17T12:17:41.544Z,1025.5
2017-01-17T12:18:51.705Z,1025.54
2017-01-17T12:20:01.422Z,1025.54
2017-01-17T12:21:11.151Z,1025.52
2017-01-17T12:22:20.872Z,1025.51
2017-01-17T12:23:30.206Z,1025.51
2017-01-17T12:24:39.923Z,1025.56
2017-01-17T12:25:49.236Z,1025.55
2017-01-17T12:26:58.953Z,1025.52
2017-01-17T12:28:08.238Z,1025.55
2017-01-17T12:29:17.999Z,1025.52
2017-01-17T12:30:27.720Z,1025.47
2017-01-17T12:31:37.001Z,1025.51
2017-01-17T12:32:46.282Z,1025.47
2017-01-17T12:33:56.028Z,1025.47
2017-01-17T12:35:06.237Z,1025.43
2017-01-17T12:36:15.973Z,1025.47
2017-01-17T12:37:25.707Z,1025.44
2017-01-17T12:38:35.436Z,1025.43
2017-01-17T12:39:46.037Z,1025.41
2017-01-17T12:40:56.275Z,1025.45
2017-01-17T12:42:05.992Z,1025.4
2017-01-17T12:43:15.273Z,1025.38
2017-01-17T12:44:24.998Z,1025.41
2017-01-17T12:45:35.159Z,1025.41
2017-01-17T12:46:44.948Z,1025.41
2017-01-17T12:47:55.117Z,1025.4
2017-01-17T12:49:05.718Z,1025.39
2017-01-17T12:50:15.431Z,1025.42
2017-01-17T12:51:25.151Z,1025.41
2017-01-17T12:52:34.936Z,1025.46
2017-01-17T12:53:44.653Z,1025.44
2017-01-17T12:54:55.274Z,1025.44
2017-01-17T12:56:04.555Z,1025.45
2017-01-17T12:57:13.840Z,1025.44
2017-01-17T12:58:23.177Z,1025.44
2017-01-17T12:59:33.354Z,1025.45
2017-01-17T13:00:43.959Z,1025.48
2017-01-17T13:01:54.555Z,1025.48
2017-01-17T13:03:03.836Z,1025.52
2017-01-17T13:04:14.046Z,1025.46
2017-01-17T13:05:23.765Z,1025.51
2017-01-17T13:06:33.923Z,1025.45
2017-01-17T13:07:43.648Z,1025.47
2017-01-17T13:08:53.805Z,1025.5
2017-01-17T13:10:04.022Z,1025.51
2017-01-17T13:11:14.183Z,1025.54
2017-01-17T13:12:23.464Z,1025.49
2017-01-17T13:13:33.625Z,1025.52
2017-01-17T13:14:43.382Z,1025.53
2017-01-17T13:15:54.035Z,1025.5
2017-01-17T13:17:03.752Z,1025.53
2017-01-17T13:18:13.469Z,1025.49
2017-01-17T13:19:23.221Z,1025.5
2017-01-17T13:20:33.382Z,1025.46
2017-01-17T13:21:44.465Z,1025.45
2017-01-17T13:22:55.068Z,1025.47
2017-01-17T13:24:04.350Z,1025.45
2017-01-17T13:25:14.074Z,1025.49
2017-01-17T13:26:24.247Z,1025.5
2017-01-17T13:27:34.896Z,1025.49
2017-01-17T13:28:45.053Z,1025.57
2017-01-17T13:29:54.338Z,1025.56
2017-01-17T13:31:04.519Z,1025.52
2017-01-17T13:32:14.684Z,1025.49
2017-01-17T13:33:24.889Z,1025.5
2017-01-17T13:34:35.506Z,1025.46
2017-01-17T13:35:45.663Z,1025.42
2017-01-17T13:36:55.399Z,1025.39
2017-01-17T13:38:05.124Z,1025.43
2017-01-17T13:39:14.893Z,1025.41
2017-01-17T13:40:25.062Z,1025.37
2017-01-17T13:41:34.779Z,1025.42
2017-01-17T13:42:44.928Z,1025.43
2017-01-17T13:43:54.649Z,1025.43
2017-01-17T13:45:05.294Z,1025.41
2017-01-17T13:46:15.015Z,1025.4
2017-01-17T13:47:25.180Z,1025.43
2017-01-17T13:48:35.337Z,1025.44
2017-01-17T13:49:44.617Z,1025.45
2017-01-17T13:50:54.387Z,1025.49
2017-01-17T13:52:04.548Z,1025.48
2017-01-17T13:53:14.272Z,1025.51
2017-01-17T13:54:24.002Z,1025.52
2017-01-17T13:55:33.723Z,1025.54
2017-01-17T13:56:44.387Z,1025.55
2017-01-17T13:57:54.996Z,1025.55
2017-01-17T13:59:04.733Z,1025.6
2017-01-17T14:00:14.455Z,1025.59
2017-01-17T14:01:23.735Z,1025.61
2017-01-17T14:02:33.100Z,1025.6
2017-01-17T14:03:42.821Z,1025.61
2017-01-17T14:04:52.535Z,1025.6
2017-01-17T14:06:02.699Z,1025.6
2017-01-17T14:07:12.860Z,1025.63
2017-01-17T14:08:23.073Z,1025.64